Time;durP1;ratioP1;P1;durP2;ratioP2;P2;SDS_P1;SDS_P2;PMS_P1;PMS_P2;Temp;Humidity;BMP_temperature;BMP_pressure;BME280_temperature;BME280_humidity;BME280_pressure;Samples;Min_cycle;Max_cycle;Signal;HPM_P1;HPM_P2
2022/01/03 00:00:34;;;;;;;1.90;1.80;;;;;;;;;;5051642;28;20500;-76
2022/01/03 00:03:02;;;;;;;3.30;1.80;;;;;;;;;;5051069;28;20458;-76
2022/01/03 00:05:29;;;;;;;2.20;2.00;;;;;;;;;;5051525;28;20440;-76
2022/01/03 00:07:57;;;;;;;2.50;1.83;;;;;;;;;;5051426;28;20445;-77
2022/01/03 00:10:26;;;;;;;2.23;1.50;;;;;;;;;;5051192;28;20952;-76
2022/01/03 00:12:53;;;;;;;2.43;1.77;;;;;;;;;;5051281;28;20457;-76
2022/01/03 00:15:20;;;;;;;1.80;1.70;;;;;;;;;;5051329;28;20456;-76
2022/01/03 00:17:49;;;;;;;2.40;1.63;;;;;;;;;;5051777;28;20448;-76
2022/01/03 00:20:16;;;;;;;4.70;1.70;;;;;;;;;;5051395;28;20490;-77
2022/01/03 00:22:45;;;;;;;2.50;1.80;;;;;;;;;;5031509;28;20465;-77
2022/01/03 00:25:16;;;;;;;2.60;1.90;;;;;;;;;;5031383;28;20485;-77
2022/01/03 00:27:46;;;;;;;4.03;2.40;;;;;;;;;;5031402;28;21015;-77
2022/01/03 00:30:14;;;;;;;3.10;2.03;;;;;;;;;;5031726;28;20441;-76
2022/01/03 00:32:44;;;;;;;4.17;1.60;;;;;;;;;;5031324;28;20520;-76
2022/01/03 00:35:11;;;;;;;2.33;1.50;;;;;;;;;;5031566;28;20433;-77
2022/01/03 00:37:38;;;;;;;3.20;1.73;;;;;;;;;;5032719;28;20470;-77
2022/01/03 00:40:06;;;;;;;2.53;1.63;;;;;;;;;;5035529;28;20449;-76
2022/01/03 00:42:33;;;;;;;3.97;1.73;;;;;;;;;;5034969;28;20436;-76
2022/01/03 00:45:03;;;;;;;1.57;1.47;;;;;;;;;;5035428;28;20449;-77
2022/01/03 00:47:30;;;;;;;3.30;1.40;;;;;;;;;;5035191;28;20544;-77
2022/01/03 00:49:58;;;;;;;3.83;1.40;;;;;;;;;;5034970;28;20523;-76
2022/01/03 00:52:25;;;;;;;3.00;1.70;;;;;;;;;;5035050;28;20503;-77
2022/01/03 00:54:52;;;;;;;3.80;1.90;;;;;;;;;;5045573;28;21015;-76
2022/01/03 00:57:24;;;;;;;3.60;2.10;;;;;;;;;;5034671;28;20497;-76
2022/01/03 00:59:57;;;;;;;1.53;1.43;;;;;;;;;;5034824;28;20453;-77
2022/01/03 01:02:27;;;;;;;2.63;1.63;;;;;;;;;;5034710;28;21040;-76
2022/01/03 01:04:55;;;;;;;3.23;2.30;;;;;;;;;;5034453;28;20967;-76
2022/01/03 01:07:23;;;;;;;1.50;1.40;;;;;;;;;;5034580;28;20848;-77
2022/01/03 01:09:51;;;;;;;2.00;1.57;;;;;;;;;;5034521;28;20947;-76
2022/01/03 01:12:19;;;;;;;4.33;1.77;;;;;;;;;;5034550;28;20488;-76
2022/01/03 01:14:50;;;;;;;3.63;1.47;;;;;;;;;;5034859;28;20459;-77
2022/01/03 01:17:17;;;;;;;2.53;1.47;;;;;;;;;;5034581;28;20584;-76
2022/01/03 01:19:45;;;;;;;2.17;1.97;;;;;;;;;;5034724;28;20452;-76
2022/01/03 01:22:12;;;;;;;4.70;2.27;;;;;;;;;;5034402;28;20783;-77
2022/01/03 01:24:48;;;;;;;3.33;2.00;;;;;;;;;;5034147;28;20442;-76
2022/01/03 01:30:00;;;;;;;3.53;1.67;;;;;;;;;;5034283;28;20406;-76
2022/01/03 01:32:27;;;;;;;3.60;1.90;;;;;;;;;;5034713;28;20441;-77
2022/01/03 01:34:56;;;;;;;1.70;1.60;;;;;;;;;;5034351;28;20448;-76
2022/01/03 01:37:23;;;;;;;3.00;1.93;;;;;;;;;;5033987;28;20494;-77
2022/01/03 01:39:50;;;;;;;3.07;1.80;;;;;;;;;;5034086;28;20443;-77
2022/01/03 01:42:18;;;;;;;7.23;1.90;;;;;;;;;;5033981;28;20449;-76
2022/01/03 01:44:48;;;;;;;4.57;1.90;;;;;;;;;;5033928;28;20453;-77
2022/01/03 01:47:15;;;;;;;2.73;2.10;;;;;;;;;;5033723;28;20983;-77
2022/01/03 01:49:45;;;;;;;2.53;1.70;;;;;;;;;;5033084;28;20448;-77
2022/01/03 01:52:17;;;;;;;2.93;1.70;;;;;;;;;;5033994;28;20497;-76
2022/01/03 01:54:50;;;;;;;3.50;1.90;;;;;;;;;;5033554;28;20454;-76
2022/01/03 01:57:18;;;;;;;2.43;1.80;;;;;;;;;;5033806;28;20921;-76
2022/01/03 01:59:51;;;;;;;6.37;1.90;;;;;;;;;;5033831;28;20499;-76
2022/01/03 02:02:22;;;;;;;3.30;1.73;;;;;;;;;;5033878;28;20446;-77
2022/01/03 02:04:59;;;;;;;2.63;1.60;;;;;;;;;;5033221;28;20516;-76
2022/01/03 02:07:39;;;;;;;3.80;2.23;;;;;;;;;;5033755;28;20461;-75
2022/01/03 02:10:08;;;;;;;6.83;1.97;;;;;;;;;;5033717;28;20906;-76
2022/01/03 02:12:38;;;;;;;2.47;1.73;;;;;;;;;;5033727;28;20552;-76
2022/01/03 02:15:08;;;;;;;4.43;1.60;;;;;;;;;;5033716;28;20454;-76
2022/01/03 02:17:35;;;;;;;6.70;1.93;;;;;;;;;;5033429;28;20485;-77
2022/01/03 02:20:05;;;;;;;6.73;2.00;;;;;;;;;;5033577;28;20456;-76
2022/01/03 02:22:32;;;;;;;3.30;1.67;;;;;;;;;;5033195;28;20514;-76
2022/01/03 02:24:59;;;;;;;2.30;1.90;;;;;;;;;;5033392;28;20461;-77
2022/01/03 02:27:26;;;;;;;2.93;1.73;;;;;;;;;;5033182;28;20514;-76
2022/01/03 02:29:53;;;;;;;2.90;1.70;;;;;;;;;;5033002;28;20914;-76
2022/01/03 02:32:20;;;;;;;4.13;1.87;;;;;;;;;;5032691;28;20442;-77
2022/01/03 02:34:48;;;;;;;2.20;2.00;;;;;;;;;;5032886;28;20852;-76
2022/01/03 02:37:16;;;;;;;7.63;2.50;;;;;;;;;;5032999;28;20943;-77
2022/01/03 02:39:44;;;;;;;5.88;1.98;;;;;;;;;;5033193;28;20525;-76
2022/01/03 02:42:11;;;;;;;2.83;2.23;;;;;;;;;;5033193;28;20233;-76
2022/01/03 02:44:38;;;;;;;4.47;2.33;;;;;;;;;;5032460;28;20475;-76
2022/01/03 02:47:05;;;;;;;2.30;1.80;;;;;;;;;;5032551;28;20482;-76
2022/01/03 02:49:32;;;;;;;2.50;2.40;;;;;;;;;;5032606;28;21006;-76
2022/01/03 02:51:59;;;;;;;4.60;1.97;;;;;;;;;;5032852;28;20440;-77
2022/01/03 02:54:28;;;;;;;6.13;2.10;;;;;;;;;;5032428;28;20453;-76
2022/01/03 02:56:55;;;;;;;2.47;2.20;;;;;;;;;;5032370;28;21053;-75
2022/01/03 02:59:22;;;;;;;4.47;1.57;;;;;;;;;;5032682;28;20867;-76
2022/01/03 03:01:49;;;;;;;3.37;1.90;;;;;;;;;;5033521;28;20487;-76
2022/01/03 03:04:16;;;;;;;3.20;2.17;;;;;;;;;;5033474;28;20499;-76
2022/01/03 03:06:43;;;;;;;3.40;1.77;;;;;;;;;;5033443;28;20472;-77
2022/01/03 03:09:12;;;;;;;3.50;1.67;;;;;;;;;;5033264;28;20520;-76
2022/01/03 03:11:41;;;;;;;2.30;1.93;;;;;;;;;;5033233;28;20467;-76
2022/01/03 03:14:08;;;;;;;3.20;1.80;;;;;;;;;;5033436;28;20446;-77
2022/01/03 03:16:35;;;;;;;4.20;2.00;;;;;;;;;;5032226;28;20483;-77
2022/01/03 03:19:02;;;;;;;2.57;1.80;;;;;;;;;;5032209;28;20517;-77
2022/01/03 03:21:31;;;;;;;3.80;1.80;;;;;;;;;;5032008;28;20445;-77
2022/01/03 03:23:58;;;;;;;2.37;1.87;;;;;;;;;;5032127;28;20476;-77
2022/01/03 03:26:25;;;;;;;4.03;1.77;;;;;;;;;;5032477;28;20496;-77
2022/01/03 03:28:53;;;;;;;2.23;2.07;;;;;;;;;;5032308;28;20446;-77
2022/01/03 03:31:21;;;;;;;2.80;1.60;;;;;;;;;;5032309;28;20629;-76
2022/01/03 03:33:48;;;;;;;2.87;1.73;;;;;;;;;;5032092;28;20457;-76
2022/01/03 03:36:15;;;;;;;3.33;1.83;;;;;;;;;;5031745;28;20472;-77
2022/01/03 03:38:42;;;;;;;1.67;1.53;;;;;;;;;;5032184;28;20443;-76
2022/01/03 03:41:09;;;;;;;3.30;1.50;;;;;;;;;;5032181;28;20447;-77
2022/01/03 03:43:36;;;;;;;2.10;1.90;;;;;;;;;;5031636;28;20971;-77
2022/01/03 03:46:04;;;;;;;1.60;1.50;;;;;;;;;;5031748;28;20500;-77
2022/01/03 03:48:34;;;;;;;1.80;1.67;;;;;;;;;;5031794;28;20449;-76
2022/01/03 03:51:01;;;;;;;2.03;1.50;;;;;;;;;;5031688;28;20453;-75
2022/01/03 03:53:28;;;;;;;4.43;2.00;;;;;;;;;;5031584;28;20456;-76
2022/01/03 03:55:55;;;;;;;4.23;1.60;;;;;;;;;;5031636;28;20991;-76
2022/01/03 03:58:22;;;;;;;3.17;1.83;;;;;;;;;;5031808;28;20484;-77
2022/01/03 04:00:49;;;;;;;5.00;1.73;;;;;;;;;;5032108;28;20441;-76
2022/01/03 04:03:17;;;;;;;2.87;1.70;;;;;;;;;;5031642;28;20445;-76
2022/01/03 04:05:44;;;;;;;3.23;1.80;;;;;;;;;;5031733;28;20476;-76
2022/01/03 04:08:11;;;;;;;3.50;2.07;;;;;;;;;;5031747;28;20440;-77
2022/01/03 04:10:38;;;;;;;3.43;1.77;;;;;;;;;;5031611;28;20440;-76
2022/01/03 04:13:05;;;;;;;2.10;1.43;;;;;;;;;;5030788;28;20797;-77
2022/01/03 04:15:32;;;;;;;3.37;1.70;;;;;;;;;;5031647;28;20457;-77
2022/01/03 04:17:59;;;;;;;5.00;1.80;;;;;;;;;;5031754;28;20528;-76
2022/01/03 04:20:28;;;;;;;2.70;1.67;;;;;;;;;;5040590;28;20936;-76
2022/01/03 04:22:55;;;;;;;3.77;1.77;;;;;;;;;;5051172;28;20439;-76
2022/01/03 04:25:22;;;;;;;2.73;1.70;;;;;;;;;;5051394;28;20451;-76
2022/01/03 04:27:49;;;;;;;4.97;1.40;;;;;;;;;;5051427;28;20440;-75
2022/01/03 04:30:16;;;;;;;6.97;1.77;;;;;;;;;;5051342;28;20498;-76
2022/01/03 04:32:43;;;;;;;2.80;1.57;;;;;;;;;;5050897;28;20474;-76
2022/01/03 04:35:10;;;;;;;5.40;1.87;;;;;;;;;;5051263;28;20440;-76
2022/01/03 04:37:38;;;;;;;3.40;1.83;;;;;;;;;;5051317;28;20538;-76
2022/01/03 04:40:06;;;;;;;2.90;1.50;;;;;;;;;;5050626;28;20525;-76
2022/01/03 04:42:33;;;;;;;1.57;1.30;;;;;;;;;;5050972;28;20509;-76
2022/01/03 04:45:02;;;;;;;4.33;1.53;;;;;;;;;;5050954;28;20906;-77
2022/01/03 04:47:29;;;;;;;3.27;1.47;;;;;;;;;;5050887;28;20998;-77
2022/01/03 04:49:56;;;;;;;2.43;1.60;;;;;;;;;;5051206;28;20481;-76
2022/01/03 04:52:23;;;;;;;3.83;2.20;;;;;;;;;;5050847;28;20942;-78
2022/01/03 04:54:51;;;;;;;5.93;1.93;;;;;;;;;;5050966;28;20445;-76
2022/01/03 04:57:18;;;;;;;6.13;2.17;;;;;;;;;;5050721;28;20484;-76
2022/01/03 04:59:46;;;;;;;3.63;1.70;;;;;;;;;;5050813;28;20862;-76
2022/01/03 05:02:13;;;;;;;4.90;1.90;;;;;;;;;;5050839;28;20475;-76
2022/01/03 05:04:40;;;;;;;4.10;2.03;;;;;;;;;;5050943;28;20466;-77
2022/01/03 05:07:07;;;;;;;3.60;1.60;;;;;;;;;;5051023;28;20458;-77
2022/01/03 05:09:34;;;;;;;4.43;1.83;;;;;;;;;;5050972;28;20443;-76
2022/01/03 05:12:02;;;;;;;6.07;1.80;;;;;;;;;;5050785;28;20444;-75
2022/01/03 05:14:29;;;;;;;3.83;1.77;;;;;;;;;;5050780;28;20534;-77
2022/01/03 05:16:57;;;;;;;5.27;2.03;;;;;;;;;;5050909;28;20512;-76
2022/01/03 05:19:25;;;;;;;7.43;2.87;;;;;;;;;;5048380;28;20541;-76
2022/01/03 05:21:52;;;;;;;5.33;1.80;;;;;;;;;;5043346;28;20440;-77
2022/01/03 05:24:19;;;;;;;8.60;1.90;;;;;;;;;;5043259;28;20439;-76
2022/01/03 05:26:46;;;;;;;6.30;2.03;;;;;;;;;;5034458;28;20529;-75
2022/01/03 05:29:15;;;;;;;8.33;2.40;;;;;;;;;;5034149;28;20460;-76
2022/01/03 05:31:42;;;;;;;5.30;2.47;;;;;;;;;;5034075;28;20465;-77
2022/01/03 05:34:09;;;;;;;9.03;2.60;;;;;;;;;;5034001;28;20467;-76
2022/01/03 05:36:36;;;;;;;4.60;1.87;;;;;;;;;;5033988;28;20560;-76
2022/01/03 05:39:04;;;;;;;4.70;2.63;;;;;;;;;;5040302;28;20476;-76
2022/01/03 05:41:32;;;;;;;8.60;2.90;;;;;;;;;;5041376;28;20448;-76
2022/01/03 05:43:59;;;;;;;4.20;2.03;;;;;;;;;;5040315;28;20455;-77
2022/01/03 05:46:27;;;;;;;7.37;1.87;;;;;;;;;;5034048;28;20484;-75
2022/01/03 05:48:54;;;;;;;3.63;2.33;;;;;;;;;;5033530;28;20923;-75
2022/01/03 05:51:21;;;;;;;5.83;2.17;;;;;;;;;;5034055;28;20494;-75
2022/01/03 05:53:48;;;;;;;3.10;1.93;;;;;;;;;;5033228;28;20451;-77
2022/01/03 05:56:15;;;;;;;4.43;2.40;;;;;;;;;;5033503;28;20497;-76
2022/01/03 05:58:42;;;;;;;6.90;2.27;;;;;;;;;;5033458;28;20482;-76
2022/01/03 06:01:10;;;;;;;4.00;2.87;;;;;;;;;;5033658;28;20447;-76
2022/01/03 06:03:39;;;;;;;7.57;2.30;;;;;;;;;;5047664;28;20538;-76
2022/01/03 06:06:20;;;;;;;3.97;1.90;;;;;;;;;;5054159;28;20479;-76
2022/01/03 06:08:47;;;;;;;2.87;1.80;;;;;;;;;;5054284;28;20437;-76
2022/01/03 06:11:14;;;;;;;6.60;2.23;;;;;;;;;;5053749;28;20451;-76
2022/01/03 06:13:41;;;;;;;6.27;2.10;;;;;;;;;;5053604;28;20520;-76
2022/01/03 06:16:08;;;;;;;5.87;2.20;;;;;;;;;;5053334;28;20937;-76
2022/01/03 06:18:35;;;;;;;5.63;2.20;;;;;;;;;;5053177;28;20478;-76
2022/01/03 06:21:04;;;;;;;6.77;2.00;;;;;;;;;;5053174;28;20442;-75
2022/01/03 06:23:31;;;;;;;4.77;2.23;;;;;;;;;;5052926;28;20455;-76
2022/01/03 06:25:58;;;;;;;2.60;1.90;;;;;;;;;;5053065;28;20978;-76
2022/01/03 06:28:25;;;;;;;5.73;2.50;;;;;;;;;;5053224;28;20443;-76
2022/01/03 06:30:52;;;;;;;4.17;2.17;;;;;;;;;;5053233;28;20501;-75
2022/01/03 06:33:19;;;;;;;4.40;2.00;;;;;;;;;;5052804;28;20447;-75
2022/01/03 06:35:46;;;;;;;4.10;2.23;;;;;;;;;;5052461;28;20463;-76
2022/01/03 06:38:14;;;;;;;14.53;2.10;;;;;;;;;;5053217;28;20484;-76
2022/01/03 06:40:41;;;;;;;5.20;1.90;;;;;;;;;;5053333;28;20856;-76
2022/01/03 06:43:08;;;;;;;3.07;1.70;;;;;;;;;;5052422;28;20450;-76
2022/01/03 06:45:35;;;;;;;7.53;2.77;;;;;;;;;;5053139;28;20444;-76
2022/01/03 06:48:02;;;;;;;3.47;1.87;;;;;;;;;;5052739;28;20446;-77
2022/01/03 06:50:30;;;;;;;10.50;2.23;;;;;;;;;;5053756;28;20495;-77
2022/01/03 06:52:58;;;;;;;4.17;3.00;;;;;;;;;;5052504;28;20449;-77
2022/01/03 06:55:26;;;;;;;2.27;1.50;;;;;;;;;;5052608;28;20457;-77
2022/01/03 06:57:53;;;;;;;9.07;2.40;;;;;;;;;;5052749;28;20562;-76
2022/01/03 07:00:21;;;;;;;8.57;2.33;;;;;;;;;;5052424;28;20475;-77
2022/01/03 07:02:48;;;;;;;3.50;2.37;;;;;;;;;;5051843;28;20438;-76
2022/01/03 07:05:16;;;;;;;11.97;3.07;;;;;;;;;;5052324;28;20473;-75
2022/01/03 07:07:43;;;;;;;3.73;2.20;;;;;;;;;;5044106;28;20488;-75
2022/01/03 07:10:11;;;;;;;7.37;2.90;;;;;;;;;;5052156;28;20966;-75
2022/01/03 07:12:40;;;;;;;5.70;2.60;;;;;;;;;;5041601;28;20478;-76
2022/01/03 07:20:37;;;;;;;5.27;2.10;;;;;;;;;;5052334;28;20517;-76
2022/01/03 07:23:04;;;;;;;5.33;2.10;;;;;;;;;;5051921;28;20438;-75
2022/01/03 07:25:32;;;;;;;3.13;2.50;;;;;;;;;;5051675;28;20496;-76
2022/01/03 07:28:00;;;;;;;7.00;2.60;;;;;;;;;;5051906;28;20492;-76
2022/01/03 07:30:27;;;;;;;8.07;3.63;;;;;;;;;;5052004;28;20427;-75
2022/01/03 07:32:54;;;;;;;9.43;2.90;;;;;;;;;;5051740;28;20525;-75
2022/01/03 07:35:22;;;;;;;4.37;2.20;;;;;;;;;;5051800;28;20484;-76
2022/01/03 07:37:49;;;;;;;7.10;2.80;;;;;;;;;;5051755;28;20597;-76
2022/01/03 07:40:16;;;;;;;8.20;2.63;;;;;;;;;;5051558;28;20446;-76
2022/01/03 07:42:43;;;;;;;8.57;2.83;;;;;;;;;;5050987;28;20450;-76
2022/01/03 07:45:12;;;;;;;6.43;2.60;;;;;;;;;;5051725;28;20458;-76
2022/01/03 07:47:39;;;;;;;4.03;2.50;;;;;;;;;;5050602;28;20469;-75
2022/01/03 07:50:07;;;;;;;7.67;2.20;;;;;;;;;;5051893;28;20484;-77
2022/01/03 07:52:34;;;;;;;5.47;2.40;;;;;;;;;;5051193;28;20461;-75
2022/01/03 07:55:01;;;;;;;6.80;2.13;;;;;;;;;;5051242;28;20453;-75
2022/01/03 07:57:28;;;;;;;4.33;2.10;;;;;;;;;;5050582;28;20516;-75
2022/01/03 07:59:56;;;;;;;3.30;2.13;;;;;;;;;;5043900;28;20446;-77
2022/01/03 08:02:24;;;;;;;5.67;3.20;;;;;;;;;;5051135;28;20537;-76
2022/01/03 08:04:52;;;;;;;6.70;2.43;;;;;;;;;;5049089;28;20474;-75
2022/01/03 08:07:19;;;;;;;5.13;2.23;;;;;;;;;;5047530;28;20466;-77
2022/01/03 08:09:46;;;;;;;7.27;3.80;;;;;;;;;;5051460;28;20436;-75
2022/01/03 08:12:13;;;;;;;7.87;2.90;;;;;;;;;;5041277;28;20453;-75
2022/01/03 08:14:40;;;;;;;15.50;8.70;;;;;;;;;;5050796;28;21014;-75
2022/01/03 08:17:07;;;;;;;9.47;3.40;;;;;;;;;;5051139;28;20457;-77
2022/01/03 08:19:35;;;;;;;8.30;3.20;;;;;;;;;;5049205;28;20474;-76
2022/01/03 08:22:02;;;;;;;6.53;2.70;;;;;;;;;;5031080;28;20447;-76
2022/01/03 08:24:29;;;;;;;6.40;2.63;;;;;;;;;;5031031;28;20448;-76
2022/01/03 08:26:56;;;;;;;9.40;3.00;;;;;;;;;;5031275;28;20474;-76
2022/01/03 08:29:24;;;;;;;9.50;2.80;;;;;;;;;;5031389;28;20458;-76
2022/01/03 08:31:51;;;;;;;8.23;2.70;;;;;;;;;;5033020;28;20445;-77
2022/01/03 08:34:18;;;;;;;4.57;2.50;;;;;;;;;;5050866;28;20472;-76
2022/01/03 08:36:47;;;;;;;5.23;2.70;;;;;;;;;;5053068;28;20461;-76
2022/01/03 08:39:14;;;;;;;8.73;2.90;;;;;;;;;;5053493;28;20537;-78
2022/01/03 08:41:41;;;;;;;6.67;2.87;;;;;;;;;;5044951;28;20453;-76
2022/01/03 08:44:09;;;;;;;7.53;4.10;;;;;;;;;;5053801;28;20446;-76
2022/01/03 08:46:36;;;;;;;7.40;3.03;;;;;;;;;;5053872;28;20475;-75
2022/01/03 08:49:04;;;;;;;6.73;2.87;;;;;;;;;;5056624;28;20966;-75
2022/01/03 08:51:31;;;;;;;8.20;3.07;;;;;;;;;;5061931;28;20441;-76
2022/01/03 08:53:59;;;;;;;6.63;2.70;;;;;;;;;;5061626;28;20446;-75
2022/01/03 08:56:26;;;;;;;6.17;3.07;;;;;;;;;;5061982;28;20466;-76
2022/01/03 08:58:54;;;;;;;10.70;3.77;;;;;;;;;;5051205;28;20478;-76
2022/01/03 09:01:21;;;;;;;11.33;6.27;;;;;;;;;;5053506;28;20805;-76
2022/01/03 09:03:50;;;;;;;11.70;6.43;;;;;;;;;;5061199;28;20438;-76
2022/01/03 09:06:17;;;;;;;7.30;5.53;;;;;;;;;;5058919;28;20463;-75
2022/01/03 09:08:44;;;;;;;10.07;4.73;;;;;;;;;;5056653;28;20546;-76
2022/01/03 09:11:13;;;;;;;13.27;5.73;;;;;;;;;;5053198;28;20550;-76
2022/01/03 09:13:40;;;;;;;8.07;5.50;;;;;;;;;;5047877;28;20457;-77
2022/01/03 09:16:07;;;;;;;11.57;4.83;;;;;;;;;;5054978;28;20973;-77
2022/01/03 09:18:35;;;;;;;10.63;4.37;;;;;;;;;;5054526;28;20540;-77
2022/01/03 09:21:02;;;;;;;8.47;5.50;;;;;;;;;;5055206;28;20442;-77
2022/01/03 09:23:33;;;;;;;6.53;4.13;;;;;;;;;;5044755;28;20497;-77
2022/01/03 09:28:57;;;;;;;8.70;5.40;;;;;;;;;;5035083;28;20432;-77
2022/01/03 09:31:25;;;;;;;7.63;4.57;;;;;;;;;;5035105;28;20433;-77
2022/01/03 09:33:52;;;;;;;9.87;4.80;;;;;;;;;;5033874;28;20447;-77
2022/01/03 09:36:19;;;;;;;6.43;3.90;;;;;;;;;;5034513;28;20468;-76
2022/01/03 09:38:46;;;;;;;6.47;4.20;;;;;;;;;;5034500;28;20514;-78
2022/01/03 09:41:14;;;;;;;11.20;4.67;;;;;;;;;;5034656;28;20448;-79
2022/01/03 09:43:49;;;;;;;6.50;4.00;;;;;;;;;;5034143;28;20445;-77
2022/01/03 09:46:20;;;;;;;10.60;6.03;;;;;;;;;;5034151;28;20480;-77
2022/01/03 09:48:52;;;;;;;8.27;4.80;;;;;;;;;;5034362;28;20424;-78
2022/01/03 09:51:19;;;;;;;6.27;4.30;;;;;;;;;;5034830;28;20438;-77
2022/01/03 09:53:46;;;;;;;24.27;18.40;;;;;;;;;;5034344;28;20451;-78
2022/01/03 09:56:14;;;;;;;8.10;5.40;;;;;;;;;;5034014;28;20525;-77
2022/01/03 09:58:41;;;;;;;6.80;4.63;;;;;;;;;;5033765;28;20480;-77
2022/01/03 10:01:09;;;;;;;8.00;4.72;;;;;;;;;;5034024;28;20491;-76
2022/01/03 10:03:36;;;;;;;6.57;3.20;;;;;;;;;;5033806;28;20252;-76
2022/01/03 10:06:03;;;;;;;5.33;2.87;;;;;;;;;;5033484;28;21036;-78
2022/01/03 10:08:30;;;;;;;4.87;2.40;;;;;;;;;;5033730;28;20447;-78
2022/01/03 10:10:57;;;;;;;6.87;2.10;;;;;;;;;;5032701;28;20778;-77
2022/01/03 10:13:24;;;;;;;4.00;2.67;;;;;;;;;;5039140;28;20438;-77
2022/01/03 10:15:51;;;;;;;4.63;2.47;;;;;;;;;;5054435;28;20485;-77
2022/01/03 10:18:20;;;;;;;4.20;2.00;;;;;;;;;;5053300;28;20461;-77
2022/01/03 10:20:48;;;;;;;4.73;2.03;;;;;;;;;;5033094;28;20566;-76
2022/01/03 10:23:15;;;;;;;4.10;1.73;;;;;;;;;;5032889;28;20447;-76
2022/01/03 10:25:43;;;;;;;3.03;1.90;;;;;;;;;;5033409;28;21175;-78
2022/01/03 10:28:10;;;;;;;5.33;1.90;;;;;;;;;;5033115;28;20453;-76
2022/01/03 10:30:39;;;;;;;4.10;2.40;;;;;;;;;;5034078;28;20462;-77
2022/01/03 10:33:06;;;;;;;4.80;2.10;;;;;;;;;;5032875;28;20527;-78
2022/01/03 10:35:39;;;;;;;3.23;1.93;;;;;;;;;;5033261;28;20785;-76
2022/01/03 10:38:07;;;;;;;7.07;2.00;;;;;;;;;;5033316;28;20566;-78
2022/01/03 10:40:34;;;;;;;5.63;2.27;;;;;;;;;;5032870;28;20465;-76
2022/01/03 10:43:13;;;;;;;3.50;1.80;;;;;;;;;;5032751;28;20622;-78
2022/01/03 10:45:41;;;;;;;3.77;2.60;;;;;;;;;;5032903;28;20826;-77
2022/01/03 10:48:26;;;;;;;5.97;2.03;;;;;;;;;;5032574;28;20464;-76
2022/01/03 10:50:55;;;;;;;2.80;1.80;;;;;;;;;;5032717;28;20451;-77
2022/01/03 10:53:32;;;;;;;7.80;2.70;;;;;;;;;;5032367;28;20451;-77
2022/01/03 10:55:59;;;;;;;5.03;1.80;;;;;;;;;;5032488;28;20692;-76
2022/01/03 10:58:33;;;;;;;3.80;1.60;;;;;;;;;;5032796;28;20456;-77
2022/01/03 11:01:00;;;;;;;3.07;1.80;;;;;;;;;;5032250;28;20522;-77
2022/01/03 11:03:31;;;;;;;6.73;1.70;;;;;;;;;;5044417;28;20438;-77
2022/01/03 11:06:12;;;;;;;7.87;2.70;;;;;;;;;;5052370;28;20468;-76
2022/01/03 11:11:34;;;;;;;7.47;1.97;;;;;;;;;;5052393;28;20480;-77
2022/01/03 11:14:02;;;;;;;2.90;1.73;;;;;;;;;;5051640;28;20823;-76
2022/01/03 11:16:31;;;;;;;4.40;1.73;;;;;;;;;;5050520;28;20478;-76
2022/01/03 11:18:58;;;;;;;6.33;2.73;;;;;;;;;;5045034;28;20498;-78
2022/01/03 11:21:28;;;;;;;3.13;1.90;;;;;;;;;;5042868;28;20452;-77
2022/01/03 11:24:04;;;;;;;4.23;2.03;;;;;;;;;;5051730;28;20442;-76
2022/01/03 11:26:33;;;;;;;4.70;1.63;;;;;;;;;;5052206;28;20464;-76
2022/01/03 11:29:01;;;;;;;3.97;1.70;;;;;;;;;;5052269;28;20456;-76
2022/01/03 11:31:32;;;;;;;5.67;1.87;;;;;;;;;;5052191;28;20443;-76
2022/01/03 11:33:59;;;;;;;3.23;1.87;;;;;;;;;;5051876;28;20458;-76
2022/01/03 11:36:28;;;;;;;5.20;2.30;;;;;;;;;;5051627;28;20525;-76
2022/01/03 11:38:55;;;;;;;4.97;2.20;;;;;;;;;;5051803;28;20534;-76
2022/01/03 11:41:22;;;;;;;2.97;1.83;;;;;;;;;;5052028;28;20805;-76
2022/01/03 11:43:50;;;;;;;5.87;2.33;;;;;;;;;;5051309;28;20978;-76
2022/01/03 11:46:17;;;;;;;3.40;1.73;;;;;;;;;;5051610;28;20571;-76
2022/01/03 11:48:44;;;;;;;2.73;1.43;;;;;;;;;;5051891;28;20488;-77
2022/01/03 11:51:12;;;;;;;38.97;25.93;;;;;;;;;;5051847;28;20459;-77
2022/01/03 11:53:45;;;;;;;4.70;2.50;;;;;;;;;;5051716;28;20790;-76
2022/01/03 11:56:15;;;;;;;7.57;2.77;;;;;;;;;;5051614;28;20552;-76
2022/01/03 11:58:49;;;;;;;4.23;1.70;;;;;;;;;;5051822;28;20440;-76
2022/01/03 12:04:14;;;;;;;3.37;1.70;;;;;;;;;;5008999;28;20531;-77
2022/01/03 12:06:43;;;;;;;10.47;1.70;;;;;;;;;;5038875;28;20474;-76
2022/01/03 12:09:12;;;;;;;3.67;1.70;;;;;;;;;;5051349;28;20435;-76
2022/01/03 12:11:43;;;;;;;3.03;1.70;;;;;;;;;;5051376;28;20471;-76
2022/01/03 12:14:12;;;;;;;3.70;1.63;;;;;;;;;;5052844;28;20452;-78
2022/01/03 12:16:43;;;;;;;1.40;1.30;;;;;;;;;;5051678;28;20504;-76
2022/01/03 12:19:12;;;;;;;1.90;1.23;;;;;;;;;;5053162;28;20451;-76
2022/01/03 12:22:00;;;;;;;4.47;1.70;;;;;;;;;;5057133;28;21326;-76
2022/01/03 12:24:42;;;;;;;2.70;1.20;;;;;;;;;;5055023;28;20451;-76
2022/01/03 12:27:22;;;;;;;4.27;1.60;;;;;;;;;;5038493;28;20461;-75
2022/01/03 12:30:06;;;;;;;3.40;1.27;;;;;;;;;;5057429;28;20448;-75
2022/01/03 12:32:34;;;;;;;2.20;1.40;;;;;;;;;;5054361;28;20499;-75
2022/01/03 12:35:21;;;;;;;1.63;1.27;;;;;;;;;;5055395;28;20502;-75
2022/01/03 12:37:48;;;;;;;2.60;1.60;;;;;;;;;;5055396;28;20444;-76
2022/01/03 12:40:18;;;;;;;2.93;1.67;;;;;;;;;;5055370;28;20491;-75
2022/01/03 12:42:55;;;;;;;3.30;1.93;;;;;;;;;;5055083;28;20530;-77
2022/01/03 12:45:52;;;;;;;2.20;1.60;;;;;;;;;;5055168;28;20452;-76
2022/01/03 12:48:20;;;;;;;3.63;1.30;;;;;;;;;;5012888;28;20459;-76
2022/01/03 12:50:47;;;;;;;3.27;1.80;;;;;;;;;;5045368;28;20453;-76
2022/01/03 12:53:29;;;;;;;1.90;1.50;;;;;;;;;;5054805;28;20491;-76
2022/01/03 12:56:02;;;;;;;3.30;1.43;;;;;;;;;;5054729;28;20468;-77
2022/01/03 12:58:38;;;;;;;1.93;1.13;;;;;;;;;;5054876;28;20440;-77
2022/01/03 13:01:08;;;;;;;2.23;1.57;;;;;;;;;;5054571;28;20522;-75
2022/01/03 13:03:42;;;;;;;4.37;1.73;;;;;;;;;;5054701;28;20455;-75
2022/01/03 13:06:10;;;;;;;2.00;1.50;;;;;;;;;;5054806;28;20504;-75
2022/01/03 13:08:38;;;;;;;1.83;1.73;;;;;;;;;;5054614;28;21059;-75
2022/01/03 13:11:08;;;;;;;3.00;1.30;;;;;;;;;;5054553;28;20936;-75
2022/01/03 13:13:35;;;;;;;4.33;1.50;;;;;;;;;;5054198;28;20483;-76
2022/01/03 13:16:17;;;;;;;3.00;1.67;;;;;;;;;;5054565;28;20598;-75
2022/01/03 13:18:45;;;;;;;3.33;1.73;;;;;;;;;;5054501;28;20503;-76
2022/01/03 13:21:14;;;;;;;2.23;1.43;;;;;;;;;;5054452;28;20538;-76
2022/01/03 13:23:41;;;;;;;2.43;1.60;;;;;;;;;;5053872;28;20455;-75
2022/01/03 13:26:09;;;;;;;5.13;1.77;;;;;;;;;;5054198;28;20525;-76
2022/01/03 13:28:45;;;;;;;3.67;1.60;;;;;;;;;;5054381;28;20447;-76
2022/01/03 13:31:12;;;;;;;1.90;1.70;;;;;;;;;;5054122;28;20531;-76
2022/01/03 13:33:39;;;;;;;2.40;1.40;;;;;;;;;;5053954;28;20493;-76
2022/01/03 13:36:07;;;;;;;3.13;1.60;;;;;;;;;;5054013;28;20471;-75
2022/01/03 13:38:35;;;;;;;2.47;1.63;;;;;;;;;;5054212;28;20479;-76
2022/01/03 13:41:13;;;;;;;4.50;1.80;;;;;;;;;;5054039;28;20537;-75
2022/01/03 13:43:44;;;;;;;2.87;1.33;;;;;;;;;;5037007;28;20508;-76
2022/01/03 13:49:13;;;;;;;3.03;1.30;;;;;;;;;;5039569;28;20412;-75
2022/01/03 13:51:45;;;;;;;3.33;1.80;;;;;;;;;;5047787;28;20441;-76
2022/01/03 13:54:22;;;;;;;3.30;2.00;;;;;;;;;;5043559;28;20464;-77
2022/01/03 13:56:51;;;;;;;2.50;2.10;;;;;;;;;;5054245;28;20551;-76
2022/01/03 13:59:18;;;;;;;3.77;1.90;;;;;;;;;;5053627;28;20446;-77
2022/01/03 14:01:46;;;;;;;3.40;1.97;;;;;;;;;;5053458;28;20469;-76
2022/01/03 14:04:14;;;;;;;4.27;1.67;;;;;;;;;;5053410;28;20492;-77
2022/01/03 14:06:41;;;;;;;2.70;1.20;;;;;;;;;;5053361;28;20546;-78
2022/01/03 14:09:11;;;;;;;4.57;1.70;;;;;;;;;;5047671;28;20454;-76
2022/01/03 14:11:38;;;;;;;4.20;1.87;;;;;;;;;;5047827;28;20457;-77
2022/01/03 14:14:10;;;;;;;6.93;2.23;;;;;;;;;;5047180;28;20882;-76
2022/01/03 14:16:54;;;;;;;3.27;1.73;;;;;;;;;;5047870;28;20982;-75
2022/01/03 14:19:21;;;;;;;4.93;1.47;;;;;;;;;;5049317;28;20446;-76
2022/01/03 14:21:49;;;;;;;2.03;1.80;;;;;;;;;;5052746;28;20477;-78
2022/01/03 14:24:16;;;;;;;2.97;1.60;;;;;;;;;;5042172;28;20551;-77
2022/01/03 14:26:54;;;;;;;5.57;2.17;;;;;;;;;;5053092;28;20509;-76
2022/01/03 14:29:23;;;;;;;3.73;1.50;;;;;;;;;;5048086;28;20480;-77
2022/01/03 14:31:53;;;;;;;2.80;1.77;;;;;;;;;;5041829;28;20442;-77
2022/01/03 14:34:24;;;;;;;4.50;2.23;;;;;;;;;;5045003;28;20460;-76
2022/01/03 14:36:52;;;;;;;3.63;1.50;;;;;;;;;;5036826;28;20535;-78
2022/01/03 14:39:19;;;;;;;2.60;1.70;;;;;;;;;;5049188;28;20519;-78
2022/01/03 14:41:56;;;;;;;3.00;1.43;;;;;;;;;;5052230;28;20478;-77
2022/01/03 14:44:26;;;;;;;3.53;1.73;;;;;;;;;;5049271;28;20457;-77
2022/01/03 14:47:01;;;;;;;2.40;1.80;;;;;;;;;;5037438;28;20501;-77
2022/01/03 14:49:28;;;;;;;3.70;1.60;;;;;;;;;;5052714;28;20473;-77
2022/01/03 14:51:55;;;;;;;2.93;1.87;;;;;;;;;;5044814;28;20444;-77
2022/01/03 14:54:22;;;;;;;3.80;1.30;;;;;;;;;;5052026;28;20451;-76
2022/01/03 14:56:50;;;;;;;3.77;1.80;;;;;;;;;;5040580;28;20568;-77
2022/01/03 14:59:18;;;;;;;2.47;1.27;;;;;;;;;;5051973;28;20499;-77
2022/01/03 15:01:48;;;;;;;2.60;1.60;;;;;;;;;;5052322;28;20475;-78
2022/01/03 15:04:15;;;;;;;4.10;1.70;;;;;;;;;;5043501;28;20460;-76
2022/01/03 15:06:42;;;;;;;3.40;1.90;;;;;;;;;;5050829;28;20986;-76
2022/01/03 15:09:10;;;;;;;3.37;1.70;;;;;;;;;;5043283;28;20456;-78
2022/01/03 15:11:37;;;;;;;1.87;1.50;;;;;;;;;;5040312;28;20445;-76